Margaret Ann — WDH6962 — position and weather

sailwx.info

Track history (hours):
 
Tides and Currents Weather Stations Pressure Air Temp Water Temp Dewpoint Dewpoint Depression Visibility Wind Speed Wind Dir Waves Ship Positions

Margaret Ann

Owner: Magnolia Marine Transport Company, Vicksburg, MS. More information available from US FCC via Universal Licensing System and Coast Guard Vessel Documentation Center.

Last reported at 2018-May-21 04:15 UTC. Time now 2018-May-21 22:45 UTC.
Position N 33°03' W 091°09'.

Length 33 m.

MMSI: 367643350.

Date/timePositionNaut miles runAvg speedWind from/ knotsBaromVisibWave heightAir tempDewpointWater temp
2018-May-21 04:15N 33°03' W 091°09'26 3.9
2018-May-20 21:36N 32°37' W 091°09'1 5.6
2018-May-20 21:28N 32°36' W 091°09'3 5.4
2018-May-20 21:01N 32°34' W 091°07'4 5.2
2018-May-20 20:10N 32°30' W 091°07'1 5.7
2018-May-20 20:01N 32°29' W 091°07'3 5.5
2018-May-20 19:31N 32°27' W 091°05'3 5.5
2018-May-20 19:01N 32°26' W 091°02'3 5.3
2018-May-20 18:30N 32°24' W 090°59'2 4.9
2018-May-20 18:01N 32°22' W 091°00'3 5.1
2018-May-20 17:31N 32°21' W 090°57'2 4.1
2018-May-20 17:01N 32°21' W 090°55'1 2.6
2018-May-20 16:31N 32°20' W 090°54'2 4.5
2018-May-20 16:01N 32°18' W 090°56'0 0.1
2018-May-20 15:31N 32°18' W 090°56'0 0.0
2018-May-20 15:00N 32°18' W 090°56'0 0.0
2018-May-20 14:30N 32°18' W 090°56'0 0.0
2018-May-20 14:01N 32°18' W 090°56'0 0.0
2018-May-20 13:31N 32°18' W 090°56'0 0.0
2018-May-20 13:01N 32°18' W 090°56'0 0.0
2018-May-20 12:31N 32°18' W 090°56'0 0.0
2018-May-20 12:00N 32°18' W 090°56'0 0.0
2018-May-20 11:30N 32°18' W 090°56'0 0.0
2018-May-20 11:01N 32°18' W 090°56'0 0.0
2018-May-20 10:31N 32°18' W 090°56'0 0.0
2018-May-20 10:01N 32°18' W 090°56'0 0.4
2018-May-20 09:31N 32°18' W 090°56'2 4.4
2018-May-20 09:01N 32°16' W 090°58'2 4.2
2018-May-20 08:31N 32°14' W 090°59'2 5.0
2018-May-20 08:01N 32°12' W 090°59'2 4.1
2018-May-20 07:30N 32°10' W 091°00'2 4.5
2018-May-20 07:00N 32°08' W 091°01'4 3.4
2018-May-20 05:56N 32°08' W 091°05'2 3.9
2018-May-20 05:31N 32°07' W 091°07'4 4.9
2018-May-20 04:36N 32°03' W 091°03'1 4.4
2018-May-20 04:29N 32°03' W 091°04'3 5.3
2018-May-20 04:01N 32°01' W 091°05'2 4.7
2018-May-20 03:30N 31°59' W 091°07'3 5.0
2018-May-20 03:00N 31°59' W 091°10'  
Track history (hours):
 
Tides and Currents Weather Stations Pressure Air Temp Water Temp Dewpoint Dewpoint Depression Visibility Wind Speed Wind Dir Waves Ship Positions

Margaret Ann

Owner: Magnolia Marine Transport Company, Vicksburg, MS. More information available from US FCC via Universal Licensing System and Coast Guard Vessel Documentation Center.

Last reported at 2018-May-21 04:15 UTC. Time now 2018-May-21 22:45 UTC.
Position N 33°03' W 091°09'.

Length 33 m.

MMSI: 367643350.

Date/timePositionNaut miles runAvg speedWind from/ knotsBaromVisibWave heightAir tempDewpointWater temp
2018-May-21 04:15N 33°03' W 091°09'26 3.9
2018-May-20 21:36N 32°37' W 091°09'1 5.6
2018-May-20 21:28N 32°36' W 091°09'3 5.4
2018-May-20 21:01N 32°34' W 091°07'4 5.2
2018-May-20 20:10N 32°30' W 091°07'1 5.7
2018-May-20 20:01N 32°29' W 091°07'3 5.5
2018-May-20 19:31N 32°27' W 091°05'3 5.5
2018-May-20 19:01N 32°26' W 091°02'3 5.3
2018-May-20 18:30N 32°24' W 090°59'2 4.9
2018-May-20 18:01N 32°22' W 091°00'3 5.1
2018-May-20 17:31N 32°21' W 090°57'2 4.1
2018-May-20 17:01N 32°21' W 090°55'1 2.6
2018-May-20 16:31N 32°20' W 090°54'2 4.5
2018-May-20 16:01N 32°18' W 090°56'0 0.1
2018-May-20 15:31N 32°18' W 090°56'0 0.0
2018-May-20 15:00N 32°18' W 090°56'0 0.0
2018-May-20 14:30N 32°18' W 090°56'0 0.0
2018-May-20 14:01N 32°18' W 090°56'0 0.0
2018-May-20 13:31N 32°18' W 090°56'0 0.0
2018-May-20 13:01N 32°18' W 090°56'0 0.0
2018-May-20 12:31N 32°18' W 090°56'0 0.0
2018-May-20 12:00N 32°18' W 090°56'0 0.0
2018-May-20 11:30N 32°18' W 090°56'0 0.0
2018-May-20 11:01N 32°18' W 090°56'0 0.0
2018-May-20 10:31N 32°18' W 090°56'0 0.0
2018-May-20 10:01N 32°18' W 090°56'0 0.4
2018-May-20 09:31N 32°18' W 090°56'2 4.4
2018-May-20 09:01N 32°16' W 090°58'2 4.2
2018-May-20 08:31N 32°14' W 090°59'2 5.0
2018-May-20 08:01N 32°12' W 090°59'2 4.1
2018-May-20 07:30N 32°10' W 091°00'2 4.5
2018-May-20 07:00N 32°08' W 091°01'4 3.4
2018-May-20 05:56N 32°08' W 091°05'2 3.9
2018-May-20 05:31N 32°07' W 091°07'4 4.9
2018-May-20 04:36N 32°03' W 091°03'1 4.4
2018-May-20 04:29N 32°03' W 091°04'3 5.3
2018-May-20 04:01N 32°01' W 091°05'2 4.7
2018-May-20 03:30N 31°59' W 091°07'3 5.0
2018-May-20 03:00N 31°59' W 091°10'  

Dump ship's entire track history